createdAt,value
2023-02-23T00:00:32.524Z,97.70
2023-02-23T00:01:32.261Z,97.70
2023-02-23T00:02:32.543Z,97.70
2023-02-23T00:03:32.266Z,97.70
2023-02-23T00:04:32.510Z,97.80
2023-02-23T00:05:32.240Z,97.70
2023-02-23T00:06:32.541Z,97.70
2023-02-23T00:07:32.239Z,97.70
2023-02-23T00:08:32.017Z,97.75
2023-02-23T00:09:52.756Z,97.75
2023-02-23T00:10:32.052Z,97.80
2023-02-23T00:11:32.281Z,97.91
2023-02-23T00:12:32.049Z,97.91
2023-02-23T00:13:32.288Z,97.80
2023-02-23T00:14:32.049Z,97.91
2023-02-23T00:15:32.302Z,97.80
2023-02-23T00:16:32.105Z,97.91
2023-02-23T00:17:32.331Z,97.91
2023-02-23T00:18:32.082Z,98.00
2023-02-23T00:19:53.044Z,98.11
2023-02-23T00:20:32.170Z,98.11
2023-02-23T00:21:31.905Z,98.21
2023-02-23T00:22:32.169Z,98.32
2023-02-23T00:23:31.925Z,98.42
2023-02-23T00:24:32.175Z,98.42
2023-02-23T00:25:31.919Z,98.52
2023-02-23T00:26:32.174Z,98.52
2023-02-23T00:27:31.930Z,98.62
2023-02-23T00:28:32.177Z,98.62
2023-02-23T00:29:53.407Z,98.52
2023-02-23T00:30:32.272Z,98.52
2023-02-23T00:31:32.014Z,98.52
2023-02-23T00:32:32.314Z,98.52
2023-02-23T00:33:31.975Z,98.62
2023-02-23T00:34:31.744Z,98.62
2023-02-23T00:35:31.979Z,98.72
2023-02-23T00:36:31.756Z,98.72
2023-02-23T00:37:32.002Z,98.72
2023-02-23T00:38:31.752Z,98.72
2023-02-23T00:39:53.485Z,98.93
2023-02-23T00:40:31.787Z,98.93
2023-02-23T00:41:32.054Z,98.93
2023-02-23T00:42:31.794Z,98.93
2023-02-23T00:43:32.046Z,98.93
2023-02-23T00:44:31.809Z,99.03
2023-02-23T00:45:32.064Z,99.03
2023-02-23T00:46:31.823Z,99.03
2023-02-23T00:47:32.066Z,99.13
2023-02-23T00:48:31.849Z,99.13
2023-02-23T00:49:52.798Z,99.24
2023-02-23T00:50:31.911Z,99.24
2023-02-23T00:51:31.636Z,99.34
2023-02-23T00:52:31.965Z,99.34
2023-02-23T00:53:31.707Z,99.44
2023-02-23T00:54:31.974Z,99.44
2023-02-23T00:55:31.724Z,99.54
2023-02-23T00:56:32.001Z,99.65
2023-02-23T00:57:31.759Z,99.65
2023-02-23T00:58:31.520Z,99.65
2023-02-23T00:59:52.977Z,99.75
2023-02-23T01:00:31.562Z,99.75
2023-02-23T01:01:31.871Z,99.75
2023-02-23T01:02:31.574Z,99.85
2023-02-23T01:03:31.819Z,99.85
2023-02-23T01:04:31.573Z,99.95
2023-02-23T01:05:31.834Z,99.95
2023-02-23T01:06:31.579Z,99.95
2023-02-23T01:07:31.833Z,99.95
2023-02-23T01:08:31.601Z,99.99
2023-02-23T01:09:53.348Z,99.99
2023-02-23T01:10:31.638Z,99.99
2023-02-23T01:11:31.396Z,99.99
2023-02-23T01:12:31.626Z,99.99
2023-02-23T01:13:31.396Z,99.99
2023-02-23T01:14:31.629Z,99.99
2023-02-23T01:15:31.451Z,99.99
2023-02-23T01:16:31.644Z,99.99
2023-02-23T01:17:31.407Z,99.99
2023-02-23T01:18:31.645Z,99.99
2023-02-23T01:19:52.117Z,99.99
2023-02-23T01:20:31.695Z,99.99
2023-02-23T01:21:31.447Z,99.99
2023-02-23T01:22:31.696Z,99.99
2023-02-23T01:23:31.452Z,99.99
2023-02-23T01:24:31.193Z,99.99
2023-02-23T01:25:31.447Z,99.99
2023-02-23T01:26:31.185Z,99.99
2023-02-23T01:27:31.437Z,99.99
2023-02-23T01:28:31.174Z,99.99
2023-02-23T01:29:52.899Z,99.99
2023-02-23T01:30:31.203Z,99.99
2023-02-23T01:31:31.549Z,99.99
2023-02-23T01:32:31.228Z,99.99
2023-02-23T01:33:31.460Z,99.99
2023-02-23T01:34:31.230Z,99.99
2023-02-23T01:35:31.488Z,99.99
2023-02-23T01:36:31.233Z,99.99
2023-02-23T01:37:31.478Z,99.99
2023-02-23T01:38:31.270Z,99.99
2023-02-23T01:39:52.978Z,99.99
2023-02-23T01:40:31.273Z,99.99
2023-02-23T01:41:31.511Z,99.99
2023-02-23T01:42:31.255Z,99.99
2023-02-23T01:43:31.504Z,99.99
2023-02-23T01:44:31.299Z,99.99
2023-02-23T01:45:31.009Z,99.99
2023-02-23T01:46:31.345Z,99.99
2023-02-23T01:47:31.024Z,99.99
2023-02-23T01:48:32.696Z,99.99
2023-02-23T01:49:51.807Z,99.99
2023-02-23T01:50:31.299Z,99.99
2023-02-23T01:51:31.082Z,99.99
2023-02-23T01:52:31.301Z,99.99
2023-02-23T01:53:31.054Z,99.99
2023-02-23T01:54:31.304Z,99.99
2023-02-23T01:55:31.055Z,99.99
2023-02-23T01:56:31.291Z,99.99
2023-02-23T01:57:31.042Z,99.99
2023-02-23T01:58:31.284Z,99.99
2023-02-23T01:59:51.247Z,99.99
2023-02-23T02:00:30.863Z,99.99
2023-02-23T02:01:31.156Z,99.99
2023-02-23T02:02:30.861Z,99.99
2023-02-23T02:03:31.127Z,99.99
2023-02-23T02:04:30.854Z,99.99
2023-02-23T02:05:31.115Z,99.99
2023-02-23T02:06:30.862Z,99.99
2023-02-23T02:07:31.189Z,99.99
2023-02-23T02:08:30.845Z,99.99
2023-02-23T02:09:52.598Z,99.99
2023-02-23T02:10:30.886Z,99.99
2023-02-23T02:11:31.161Z,99.99
2023-02-23T02:12:30.905Z,99.99
2023-02-23T02:13:31.164Z,99.99
2023-02-23T02:14:30.931Z,99.99
2023-02-23T02:15:30.669Z,99.99
2023-02-23T02:16:30.908Z,99.99
2023-02-23T02:17:30.674Z,99.99
2023-02-23T02:18:30.954Z,99.99
2023-02-23T02:19:52.218Z,99.99
2023-02-23T02:20:31.001Z,99.99
2023-02-23T02:21:30.771Z,99.99
2023-02-23T02:22:31.018Z,99.99
2023-02-23T02:23:30.794Z,99.99
2023-02-23T02:24:31.304Z,99.99
2023-02-23T02:25:30.810Z,99.99
2023-02-23T02:26:30.566Z,99.99
2023-02-23T02:27:30.818Z,99.99
2023-02-23T02:28:30.551Z,99.99
2023-02-23T02:29:50.923Z,99.99
2023-02-23T02:30:30.644Z,99.99
2023-02-23T02:31:30.934Z,99.99
2023-02-23T02:32:30.635Z,99.99
2023-02-23T02:33:30.889Z,99.99
2023-02-23T02:34:30.639Z,99.99
2023-02-23T02:35:30.900Z,99.99
2023-02-23T02:36:30.630Z,99.99
2023-02-23T02:37:30.903Z,99.99
2023-02-23T02:38:30.634Z,99.99
2023-02-23T02:39:51.604Z,99.99
2023-02-23T02:40:30.647Z,99.99
2023-02-23T02:41:30.913Z,99.99
2023-02-23T02:42:30.644Z,99.99
2023-02-23T02:43:30.408Z,99.99
2023-02-23T02:44:32.649Z,99.99
2023-02-23T02:45:30.421Z,99.99
2023-02-23T02:46:30.715Z,99.99
2023-02-23T02:47:30.435Z,99.99
2023-02-23T02:48:30.692Z,99.99
2023-02-23T02:49:51.921Z,99.99
2023-02-23T02:50:30.715Z,99.99
2023-02-23T02:51:30.471Z,99.99
2023-02-23T02:52:30.719Z,99.99
2023-02-23T02:53:30.496Z,99.99
2023-02-23T02:54:30.736Z,99.99
2023-02-23T02:55:30.491Z,99.99
2023-02-23T02:56:30.234Z,99.99
2023-02-23T02:57:30.501Z,99.99
2023-02-23T02:58:30.252Z,99.99
2023-02-23T02:59:51.358Z,99.99
2023-02-23T03:00:30.310Z,99.99
2023-02-23T03:01:30.597Z,99.99
2023-02-23T03:02:30.320Z,99.99
2023-02-23T03:03:30.563Z,99.99
2023-02-23T03:04:30.322Z,99.99
2023-02-23T03:05:30.600Z,99.99
2023-02-23T03:06:30.336Z,99.99
2023-02-23T03:07:30.577Z,99.99
2023-02-23T03:08:30.329Z,99.99
2023-02-23T03:09:51.295Z,99.99
2023-02-23T03:10:30.378Z,99.99
2023-02-23T03:11:30.120Z,99.99
2023-02-23T03:12:30.393Z,99.99
2023-02-23T03:13:30.133Z,99.99
2023-02-23T03:14:30.390Z,99.99
2023-02-23T03:15:30.131Z,99.99
2023-02-23T03:16:30.387Z,99.99
2023-02-23T03:17:30.135Z,99.99
2023-02-23T03:18:30.413Z,99.99
2023-02-23T03:19:51.676Z,99.99
2023-02-23T03:20:30.495Z,99.99
2023-02-23T03:21:30.272Z,99.99
2023-02-23T03:22:30.076Z,99.99
2023-02-23T03:23:30.308Z,99.99
2023-02-23T03:24:30.134Z,99.99
2023-02-23T03:25:30.381Z,99.99
2023-02-23T03:26:30.196Z,99.99
2023-02-23T03:27:30.444Z,99.99
2023-02-23T03:28:30.274Z,99.99
2023-02-23T03:29:51.535Z,99.99
2023-02-23T03:30:30.373Z,99.99
2023-02-23T03:31:30.149Z,99.99
2023-02-23T03:32:30.038Z,99.99
2023-02-23T03:33:30.227Z,99.99
2023-02-23T03:34:29.979Z,99.99
2023-02-23T03:35:30.294Z,99.99
2023-02-23T03:36:30.068Z,99.99
2023-02-23T03:37:30.338Z,99.99
2023-02-23T03:38:30.110Z,99.99
2023-02-23T03:39:50.876Z,99.99
2023-02-23T03:40:30.259Z,99.99
2023-02-23T03:41:29.996Z,99.99
2023-02-23T03:42:30.244Z,99.99
2023-02-23T03:43:30.019Z,99.99
2023-02-23T03:44:29.834Z,99.99
2023-02-23T03:45:30.182Z,99.99
2023-02-23T03:46:29.887Z,99.99
2023-02-23T03:47:30.201Z,99.99
2023-02-23T03:48:29.957Z,99.99
2023-02-23T03:49:51.728Z,99.99
2023-02-23T03:50:30.049Z,99.99
2023-02-23T03:51:29.869Z,99.99
2023-02-23T03:52:30.105Z,99.99
2023-02-23T03:53:29.915Z,99.99
2023-02-23T03:54:29.658Z,99.99
2023-02-23T03:55:29.948Z,99.99
2023-02-23T03:56:29.709Z,99.99
2023-02-23T03:57:30.066Z,99.99
2023-02-23T03:58:29.767Z,99.99
2023-02-23T03:59:51.528Z,99.99
2023-02-23T04:00:29.869Z,99.99
2023-02-23T04:01:29.666Z,99.99
2023-02-23T04:02:29.910Z,99.99
2023-02-23T04:03:29.716Z,99.99
2023-02-23T04:04:29.906Z,99.99
2023-02-23T04:05:29.667Z,99.99
2023-02-23T04:06:29.914Z,99.99
2023-02-23T04:07:29.701Z,99.99
2023-02-23T04:08:29.952Z,99.99
2023-02-23T04:09:50.377Z,99.99
2023-02-23T04:10:29.553Z,99.99
2023-02-23T04:11:29.802Z,99.99
2023-02-23T04:12:29.555Z,99.99
2023-02-23T04:13:29.825Z,99.99
2023-02-23T04:14:29.585Z,99.99
2023-02-23T04:15:29.842Z,99.99
2023-02-23T04:16:29.624Z,99.99
2023-02-23T04:17:29.875Z,99.99
2023-02-23T04:18:29.608Z,99.99
2023-02-23T04:19:51.423Z,99.99
2023-02-23T04:20:29.758Z,99.99
2023-02-23T04:21:29.483Z,99.99
2023-02-23T04:22:29.742Z,99.99
2023-02-23T04:23:29.503Z,99.99
2023-02-23T04:24:29.756Z,99.99
2023-02-23T04:25:29.508Z,99.99
2023-02-23T04:26:29.769Z,99.99
2023-02-23T04:27:29.538Z,99.99
2023-02-23T04:28:29.830Z,99.99
2023-02-23T04:29:51.074Z,99.99
2023-02-23T04:30:29.414Z,99.99
2023-02-23T04:31:29.695Z,99.99
2023-02-23T04:32:29.437Z,99.99
2023-02-23T04:33:29.655Z,99.99
2023-02-23T04:34:29.359Z,99.99
2023-02-23T04:35:29.629Z,99.99
2023-02-23T04:36:29.365Z,99.99
2023-02-23T04:37:29.629Z,99.99
2023-02-23T04:38:29.373Z,99.99
2023-02-23T04:39:50.440Z,99.99
2023-02-23T04:40:29.438Z,99.99
2023-02-23T04:41:29.202Z,99.99
2023-02-23T04:42:29.437Z,99.99
2023-02-23T04:43:29.209Z,99.99
2023-02-23T04:44:29.442Z,99.99
2023-02-23T04:45:29.208Z,99.99
2023-02-23T04:46:29.486Z,99.99
2023-02-23T04:47:29.214Z,99.99
2023-02-23T04:48:29.457Z,99.99
2023-02-23T04:49:49.933Z,99.99
2023-02-23T04:50:31.598Z,99.99
2023-02-23T04:51:29.272Z,99.99
2023-02-23T04:52:29.516Z,99.99
2023-02-23T04:53:29.278Z,99.99
2023-02-23T04:54:29.537Z,99.99
2023-02-23T04:55:29.307Z,99.99
2023-02-23T04:56:29.042Z,99.99
2023-02-23T04:57:29.294Z,99.99
2023-02-23T04:58:29.012Z,99.99
2023-02-23T04:59:50.772Z,99.99
2023-02-23T05:00:29.071Z,99.99
2023-02-23T05:01:29.393Z,99.99
2023-02-23T05:02:29.074Z,99.99
2023-02-23T05:03:29.308Z,99.99
2023-02-23T05:04:29.093Z,99.99
2023-02-23T05:05:29.337Z,99.99
2023-02-23T05:06:29.082Z,99.99
2023-02-23T05:07:29.338Z,99.99
2023-02-23T05:08:29.083Z,99.99
2023-02-23T05:09:49.989Z,99.99
2023-02-23T05:10:29.128Z,99.99
2023-02-23T05:11:28.875Z,99.99
2023-02-23T05:12:29.133Z,99.99
2023-02-23T05:13:28.870Z,99.99
2023-02-23T05:14:29.142Z,99.99
2023-02-23T05:15:28.874Z,99.99
2023-02-23T05:16:29.145Z,99.99
2023-02-23T05:17:28.881Z,99.99
2023-02-23T05:18:29.140Z,99.99
2023-02-23T05:19:50.435Z,99.99
2023-02-23T05:20:29.251Z,99.99
2023-02-23T05:21:28.983Z,99.99
2023-02-23T05:22:29.263Z,99.99
2023-02-23T05:23:28.995Z,99.99
2023-02-23T05:24:28.751Z,99.99
2023-02-23T05:25:28.988Z,99.99
2023-02-23T05:26:28.741Z,99.99
2023-02-23T05:27:28.982Z,99.99
2023-02-23T05:28:28.734Z,99.99
2023-02-23T05:29:50.474Z,99.99
2023-02-23T05:30:28.792Z,99.99
2023-02-23T05:31:29.120Z,99.99
2023-02-23T05:32:29.127Z,99.99
2023-02-23T05:33:28.822Z,99.99
2023-02-23T05:34:29.393Z,99.99
2023-02-23T05:35:28.622Z,99.99
2023-02-23T05:36:28.877Z,99.99
2023-02-23T05:37:28.619Z,99.99
2023-02-23T05:38:28.904Z,99.99
2023-02-23T05:39:49.434Z,99.99
2023-02-23T05:40:28.945Z,99.99
2023-02-23T05:41:28.693Z,99.99
2023-02-23T05:42:28.951Z,99.99
2023-02-23T05:43:28.707Z,99.99
2023-02-23T05:44:28.963Z,99.99
2023-02-23T05:45:28.754Z,99.99
2023-02-23T05:46:28.996Z,99.99
2023-02-23T05:47:28.782Z,99.99
2023-02-23T05:48:28.963Z,99.99
2023-02-23T05:49:50.229Z,99.99
2023-02-23T05:50:28.512Z,99.99
2023-02-23T05:51:28.752Z,99.99
2023-02-23T05:52:28.512Z,99.99
2023-02-23T05:53:28.735Z,99.99
2023-02-23T05:54:28.506Z,99.99
2023-02-23T05:55:28.743Z,99.99
2023-02-23T05:56:28.503Z,99.99
2023-02-23T05:57:28.837Z,99.99
2023-02-23T05:58:28.529Z,99.99
2023-02-23T05:59:50.249Z,99.99
2023-02-23T06:00:28.569Z,99.99
2023-02-23T06:01:30.269Z,99.99
2023-02-23T06:02:28.615Z,99.99
2023-02-23T06:03:28.886Z,99.99
2023-02-23T06:04:28.621Z,99.99
2023-02-23T06:05:28.348Z,99.99
2023-02-23T06:06:28.624Z,99.99
2023-02-23T06:07:28.365Z,99.99
2023-02-23T06:08:28.641Z,99.99
2023-02-23T06:09:49.104Z,99.99
2023-02-23T06:10:28.756Z,99.99
2023-02-23T06:11:28.491Z,99.99
2023-02-23T06:12:28.264Z,99.99
2023-02-23T06:13:28.519Z,99.99
2023-02-23T06:14:28.275Z,99.99
2023-02-23T06:15:29.967Z,99.99
2023-02-23T06:16:28.381Z,99.99
2023-02-23T06:17:28.542Z,99.99
2023-02-23T06:18:28.271Z,99.99
2023-02-23T06:19:49.618Z,99.99
2023-02-23T06:20:28.318Z,99.99
2023-02-23T06:21:28.562Z,99.99
2023-02-23T06:22:28.313Z,99.99
2023-02-23T06:23:28.565Z,99.99
2023-02-23T06:24:28.308Z,99.99
2023-02-23T06:25:28.574Z,99.99
2023-02-23T06:26:28.338Z,99.99
2023-02-23T06:27:28.573Z,99.99
2023-02-23T06:28:28.348Z,99.99
2023-02-23T06:29:50.066Z,99.99
2023-02-23T06:30:28.395Z,99.99
2023-02-23T06:31:28.200Z,99.99
2023-02-23T06:32:28.467Z,99.99
2023-02-23T06:33:28.143Z,99.99
2023-02-23T06:34:28.394Z,99.99
2023-02-23T06:35:28.125Z,99.99
2023-02-23T06:36:28.387Z,99.99
2023-02-23T06:37:28.135Z,99.99
2023-02-23T06:38:28.395Z,99.99
2023-02-23T06:39:49.680Z,99.99
2023-02-23T06:40:27.987Z,99.99
2023-02-23T06:41:28.228Z,99.99
2023-02-23T06:42:27.980Z,99.99
2023-02-23T06:43:28.218Z,99.99
2023-02-23T06:44:28.003Z,99.99
2023-02-23T06:45:28.276Z,99.99
2023-02-23T06:46:28.108Z,99.99
2023-02-23T06:47:28.261Z,99.99
2023-02-23T06:48:28.081Z,99.99
2023-02-23T06:49:47.988Z,99.99
2023-02-23T06:50:27.361Z,99.99
2023-02-23T06:51:28.119Z,99.99
2023-02-23T06:52:27.588Z,99.99
2023-02-23T06:53:28.263Z,99.99
2023-02-23T06:54:27.332Z,99.99
2023-02-23T06:55:27.328Z,99.99
2023-02-23T06:56:28.098Z,99.99
2023-02-23T06:57:27.836Z,99.99
2023-02-23T06:58:27.281Z,99.99
2023-02-23T06:59:47.302Z,99.99
2023-02-23T07:00:28.046Z,99.99
2023-02-23T07:01:27.854Z,99.99
2023-02-23T07:02:27.228Z,99.99
2023-02-23T07:03:27.234Z,99.99
2023-02-23T07:04:27.199Z,99.99
2023-02-23T07:05:27.202Z,99.99
2023-02-23T07:06:27.173Z,99.99
2023-02-23T07:07:27.229Z,99.99
2023-02-23T07:08:27.171Z,99.99
2023-02-23T07:09:47.212Z,99.99
2023-02-23T07:10:27.122Z,99.99
2023-02-23T07:11:27.138Z,99.99
2023-02-23T07:12:27.128Z,99.99
2023-02-23T07:13:27.153Z,99.99
2023-02-23T07:14:27.390Z,99.99
2023-02-23T07:15:27.082Z,99.99
2023-02-23T07:16:28.614Z,99.99
2023-02-23T07:17:29.201Z,99.99
2023-02-23T07:18:28.933Z,99.99
2023-02-23T07:19:47.136Z,99.99
2023-02-23T07:20:28.547Z,99.99
2023-02-23T07:21:28.529Z,99.99
2023-02-23T07:22:28.532Z,99.99
2023-02-23T07:23:27.707Z,99.99
2023-02-23T07:24:28.486Z,99.99
2023-02-23T07:25:27.459Z,99.99
2023-02-23T07:26:28.483Z,99.99
2023-02-23T07:27:29.342Z,99.99
2023-02-23T07:28:29.135Z,99.99
2023-02-23T07:29:48.021Z,99.99
2023-02-23T07:30:29.252Z,99.99
2023-02-23T07:31:29.045Z,99.99
2023-02-23T07:32:29.382Z,99.99
2023-02-23T07:33:29.133Z,99.99
2023-02-23T07:34:29.332Z,99.99
2023-02-23T07:35:29.120Z,99.99
2023-02-23T07:36:28.930Z,99.99
2023-02-23T07:37:29.497Z,99.99
2023-02-23T07:38:28.278Z,99.99
2023-02-23T07:39:47.904Z,99.99
2023-02-23T07:40:29.117Z,99.99
2023-02-23T07:41:28.877Z,99.99
2023-02-23T07:42:29.208Z,99.99
2023-02-23T07:43:28.538Z,99.99
2023-02-23T07:44:28.827Z,99.99
2023-02-23T07:45:29.200Z,99.99
2023-02-23T07:46:29.428Z,99.99
2023-02-23T07:47:29.237Z,99.99
2023-02-23T07:48:28.003Z,99.99
2023-02-23T07:49:47.349Z,99.99
2023-02-23T07:50:29.103Z,99.99
2023-02-23T07:51:28.868Z,99.99
2023-02-23T07:52:28.251Z,99.99
2023-02-23T07:53:27.415Z,99.99
2023-02-23T07:54:27.629Z,99.99
2023-02-23T07:55:27.382Z,99.99
2023-02-23T07:56:27.672Z,99.99
2023-02-23T07:57:27.388Z,99.99
2023-02-23T07:58:27.659Z,99.99
2023-02-23T07:59:48.027Z,99.99
2023-02-23T08:00:27.255Z,99.99
2023-02-23T08:01:27.552Z,99.99
2023-02-23T08:02:27.227Z,99.99
2023-02-23T08:03:27.464Z,99.99
2023-02-23T08:04:27.244Z,99.99
2023-02-23T08:05:27.447Z,99.99
2023-02-23T08:06:27.218Z,99.99
2023-02-23T08:07:27.473Z,99.99
2023-02-23T08:08:28.715Z,99.99
2023-02-23T08:09:47.552Z,99.99
2023-02-23T08:10:28.012Z,99.99
2023-02-23T08:11:28.008Z,99.99
2023-02-23T08:12:28.846Z,99.99
2023-02-23T08:13:28.936Z,99.99
2023-02-23T08:14:28.291Z,99.99
2023-02-23T08:15:28.550Z,99.99
2023-02-23T08:16:28.097Z,99.99
2023-02-23T08:17:27.880Z,99.99
2023-02-23T08:18:28.957Z,99.99
2023-02-23T08:19:47.265Z,99.99
2023-02-23T08:20:28.469Z,99.99
2023-02-23T08:21:28.781Z,99.99
2023-02-23T08:22:29.365Z,99.99
2023-02-23T08:23:28.030Z,99.99
2023-02-23T08:24:28.676Z,99.99
2023-02-23T08:25:28.433Z,99.99
2023-02-23T08:26:28.739Z,99.99
2023-02-23T08:27:28.505Z,99.99
2023-02-23T08:28:28.026Z,99.99
2023-02-23T08:29:47.204Z,99.99
2023-02-23T08:30:28.499Z,99.99
2023-02-23T08:31:28.124Z,99.99
2023-02-23T08:32:28.548Z,99.99
2023-02-23T08:33:28.279Z,99.99
2023-02-23T08:34:27.156Z,99.99
2023-02-23T08:35:27.522Z,99.99
2023-02-23T08:36:28.637Z,99.99
2023-02-23T08:37:28.403Z,99.99
2023-02-23T08:38:27.915Z,99.99
2023-02-23T08:39:47.006Z,99.99
2023-02-23T08:40:28.221Z,99.99
2023-02-23T08:41:27.522Z,99.99
2023-02-23T08:42:28.313Z,99.99
2023-02-23T08:43:28.580Z,99.99
2023-02-23T08:44:28.389Z,99.99
2023-02-23T08:45:28.159Z,99.99
2023-02-23T08:46:28.540Z,99.95
2023-02-23T08:47:27.540Z,99.85
2023-02-23T08:48:29.018Z,99.85
2023-02-23T08:49:46.826Z,99.54
2023-02-23T08:50:28.566Z,99.44
2023-02-23T08:51:28.271Z,99.44
2023-02-23T08:52:28.562Z,99.44
2023-02-23T08:53:27.524Z,99.44
2023-02-23T08:54:28.151Z,99.28
2023-02-23T08:55:28.421Z,99.28
2023-02-23T08:56:28.218Z,99.18
2023-02-23T08:57:28.467Z,99.18
2023-02-23T08:58:28.255Z,99.28
2023-02-23T08:59:47.068Z,99.38
2023-02-23T09:00:28.252Z,99.49
2023-02-23T09:01:28.113Z,99.59
2023-02-23T09:02:28.372Z,99.69
2023-02-23T09:03:28.152Z,99.69
2023-02-23T09:04:28.465Z,99.69
2023-02-23T09:05:27.549Z,99.69
2023-02-23T09:06:28.026Z,99.59
2023-02-23T09:07:28.305Z,99.59
2023-02-23T09:08:26.744Z,99.69
2023-02-23T09:09:46.912Z,99.79
2023-02-23T09:10:28.137Z,99.75
2023-02-23T09:11:27.541Z,99.85
2023-02-23T09:12:28.193Z,99.75
2023-02-23T09:13:28.003Z,99.75
2023-02-23T09:14:28.264Z,99.65
2023-02-23T09:15:28.046Z,99.44
2023-02-23T09:16:28.300Z,99.34
2023-02-23T09:17:27.544Z,99.34
2023-02-23T09:18:27.904Z,99.19
2023-02-23T09:19:46.771Z,99.19
2023-02-23T09:20:27.952Z,99.09
2023-02-23T09:21:28.237Z,99.29
2023-02-23T09:22:27.271Z,99.29
2023-02-23T09:23:27.805Z,99.29
2023-02-23T09:24:28.086Z,99.19
2023-02-23T09:25:27.896Z,99.19
2023-02-23T09:26:28.165Z,98.99
2023-02-23T09:27:27.970Z,98.99
2023-02-23T09:28:27.106Z,98.99
2023-02-23T09:29:46.584Z,98.88
2023-02-23T09:30:27.840Z,98.78
2023-02-23T09:31:26.692Z,98.78
2023-02-23T09:32:28.097Z,98.68
2023-02-23T09:33:27.680Z,98.78
2023-02-23T09:34:27.040Z,98.68
2023-02-23T09:35:26.984Z,98.83
2023-02-23T09:36:28.007Z,98.72
2023-02-23T09:37:27.801Z,98.83
2023-02-23T09:38:26.814Z,98.93
2023-02-23T09:39:46.448Z,98.93
2023-02-23T09:40:26.191Z,99.03
2023-02-23T09:41:27.937Z,99.13
2023-02-23T09:42:27.722Z,99.24
2023-02-23T09:43:28.021Z,99.13
2023-02-23T09:44:27.778Z,99.13
2023-02-23T09:45:27.052Z,99.13
2023-02-23T09:46:27.902Z,99.13
2023-02-23T09:47:26.840Z,99.24
2023-02-23T09:48:27.956Z,99.24
2023-02-23T09:49:46.248Z,99.24
2023-02-23T09:50:27.052Z,99.24
2023-02-23T09:51:27.073Z,99.34
2023-02-23T09:52:27.511Z,99.44
2023-02-23T09:53:27.783Z,99.54
2023-02-23T09:54:27.514Z,99.44
2023-02-23T09:55:27.816Z,99.54
2023-02-23T09:56:27.579Z,99.54
2023-02-23T09:57:27.063Z,99.40
2023-02-23T09:58:27.666Z,99.40
2023-02-23T09:59:46.446Z,99.40
2023-02-23T10:00:27.754Z,99.40
2023-02-23T10:01:27.413Z,99.40
2023-02-23T10:02:27.650Z,99.29
2023-02-23T10:03:26.066Z,99.29
2023-02-23T10:04:27.768Z,99.19
2023-02-23T10:05:27.488Z,99.19
2023-02-23T10:06:27.825Z,99.09
2023-02-23T10:07:27.556Z,99.09
2023-02-23T10:08:26.572Z,99.09
2023-02-23T10:09:46.128Z,98.99
2023-02-23T10:10:27.363Z,98.99
2023-02-23T10:11:26.842Z,98.99
2023-02-23T10:12:27.374Z,98.78
2023-02-23T10:13:27.662Z,98.78
2023-02-23T10:14:27.453Z,98.78
2023-02-23T10:15:26.593Z,98.78
2023-02-23T10:16:27.473Z,98.78
2023-02-23T10:17:27.252Z,98.78
2023-02-23T10:18:44.972Z,98.68
2023-02-23T10:19:46.872Z,98.68
2023-02-23T10:20:27.584Z,98.78
2023-02-23T10:21:26.564Z,98.68
2023-02-23T10:22:27.585Z,98.68
2023-02-23T10:23:28.653Z,98.68
2023-02-23T10:24:27.160Z,98.63
2023-02-23T10:25:25.996Z,98.43
2023-02-23T10:26:27.187Z,98.33
2023-02-23T10:27:26.667Z,98.33
2023-02-23T10:28:27.225Z,98.33
2023-02-23T10:29:46.062Z,98.22
2023-02-23T10:30:27.250Z,97.91
2023-02-23T10:31:28.184Z,97.66
2023-02-23T10:32:27.565Z,97.46
2023-02-23T10:33:27.112Z,97.46
2023-02-23T10:34:27.634Z,97.36
2023-02-23T10:35:27.539Z,96.91
2023-02-23T10:36:28.042Z,96.80
2023-02-23T10:37:27.701Z,96.66
2023-02-23T10:38:27.581Z,96.34
2023-02-23T10:39:46.315Z,95.89
2023-02-23T10:40:26.425Z,95.69
2023-02-23T10:41:27.688Z,95.48
2023-02-23T10:42:27.572Z,95.34
2023-02-23T10:43:25.867Z,94.78
2023-02-23T10:44:27.519Z,94.07
2023-02-23T10:45:26.661Z,93.25
2023-02-23T10:46:27.184Z,93.15
2023-02-23T10:47:27.616Z,92.94
2023-02-23T10:48:27.758Z,92.84
2023-02-23T10:49:45.517Z,92.54
2023-02-23T10:50:26.257Z,92.43
2023-02-23T10:51:27.034Z,92.33
2023-02-23T10:52:27.502Z,92.08
2023-02-23T10:53:27.742Z,91.61
2023-02-23T10:54:27.318Z,91.41
2023-02-23T10:55:27.565Z,91.31
2023-02-23T10:56:27.388Z,91.52
2023-02-23T10:57:26.612Z,91.92
2023-02-23T10:58:27.599Z,92.13
2023-02-23T10:59:45.400Z,91.52
2023-02-23T11:00:27.906Z,91.52
2023-02-23T11:01:26.924Z,91.92
2023-02-23T11:02:26.127Z,91.92
2023-02-23T11:03:26.912Z,91.61
2023-02-23T11:04:27.643Z,91.46
2023-02-23T11:05:27.022Z,91.35
2023-02-23T11:06:26.718Z,91.56
2023-02-23T11:07:27.717Z,91.66
2023-02-23T11:08:26.211Z,91.96
2023-02-23T11:09:47.812Z,91.82
2023-02-23T11:10:27.475Z,91.61
2023-02-23T11:11:27.415Z,91.41
2023-02-23T11:12:27.022Z,90.59
2023-02-23T11:13:27.459Z,89.72
2023-02-23T11:14:26.512Z,89.58
2023-02-23T11:15:39.328Z,90.08
2023-02-23T11:16:27.936Z,90.39
2023-02-23T11:17:26.687Z,90.45
2023-02-23T11:18:26.378Z,90.55
2023-02-23T11:19:46.453Z,90.00
2023-02-23T11:20:26.109Z,89.39
2023-02-23T11:21:26.760Z,88.78
2023-02-23T11:22:26.513Z,88.78
2023-02-23T11:23:26.804Z,88.67
2023-02-23T11:24:26.584Z,88.37
2023-02-23T11:25:26.099Z,88.67
2023-02-23T11:26:26.634Z,87.65
2023-02-23T11:27:26.908Z,88.17
2023-02-23T11:28:26.663Z,88.47
2023-02-23T11:29:45.505Z,88.47
2023-02-23T11:30:25.958Z,88.37
2023-02-23T11:31:26.123Z,88.26
2023-02-23T11:32:26.886Z,88.63
2023-02-23T11:33:25.036Z,88.22
2023-02-23T11:34:26.756Z,87.41
2023-02-23T11:35:25.058Z,87.14
2023-02-23T11:36:26.849Z,86.12
2023-02-23T11:37:25.657Z,86.26
2023-02-23T11:38:26.806Z,86.98
2023-02-23T11:39:45.115Z,88.41
2023-02-23T11:40:26.831Z,88.61
2023-02-23T11:41:25.155Z,88.10
2023-02-23T11:42:26.338Z,88.51
2023-02-23T11:43:26.601Z,88.96
2023-02-23T11:44:25.012Z,89.37
2023-02-23T11:45:26.639Z,89.37
2023-02-23T11:46:26.627Z,89.26
2023-02-23T11:47:26.661Z,89.26
2023-02-23T11:48:25.042Z,89.47
2023-02-23T11:49:45.252Z,89.37
2023-02-23T11:50:25.000Z,89.58
2023-02-23T11:51:25.306Z,89.98
2023-02-23T11:52:25.040Z,89.47
2023-02-23T11:53:24.797Z,89.58
2023-02-23T11:54:25.045Z,89.37
2023-02-23T11:55:25.662Z,89.37
2023-02-23T11:56:25.102Z,89.67
2023-02-23T11:57:24.841Z,89.82
2023-02-23T11:58:26.550Z,89.41
2023-02-23T11:59:46.712Z,89.11
2023-02-23T12:00:26.571Z,88.39
2023-02-23T12:01:26.233Z,88.29
2023-02-23T12:02:26.124Z,88.59
2023-02-23T12:03:25.023Z,88.49
2023-02-23T12:04:24.724Z,89.00
2023-02-23T12:05:24.996Z,88.70
2023-02-23T12:06:24.742Z,89.00
2023-02-23T12:07:26.428Z,88.90
2023-02-23T12:08:24.751Z,88.49
2023-02-23T12:09:45.031Z,88.76
2023-02-23T12:10:24.750Z,88.85
2023-02-23T12:11:26.454Z,89.37
2023-02-23T12:12:24.781Z,89.26
2023-02-23T12:13:26.468Z,89.37
2023-02-23T12:14:24.849Z,89.23
2023-02-23T12:15:24.575Z,88.51
2023-02-23T12:16:24.838Z,88.10
2023-02-23T12:17:24.568Z,88.00
2023-02-23T12:18:24.841Z,88.10
2023-02-23T12:19:46.084Z,87.65
2023-02-23T12:20:24.937Z,87.35
2023-02-23T12:21:24.698Z,87.35
2023-02-23T12:22:25.635Z,87.20
2023-02-23T12:23:24.721Z,86.90
2023-02-23T12:24:24.453Z,85.77
2023-02-23T12:25:24.771Z,85.22
2023-02-23T12:26:24.474Z,84.72
2023-02-23T12:27:24.754Z,85.13
2023-02-23T12:28:24.494Z,85.27
2023-02-23T12:29:44.785Z,85.57
2023-02-23T12:30:24.871Z,85.98
2023-02-23T12:31:24.647Z,85.77
2023-02-23T12:32:24.929Z,85.92
2023-02-23T12:33:24.624Z,86.53
2023-02-23T12:34:24.362Z,85.82
2023-02-23T12:35:24.626Z,86.33
2023-02-23T12:36:24.375Z,86.73
2023-02-23T12:37:24.658Z,87.04
2023-02-23T12:38:24.403Z,86.59
2023-02-23T12:39:46.183Z,86.08
2023-02-23T12:40:24.474Z,85.37
2023-02-23T12:41:24.751Z,85.16
2023-02-23T12:42:24.492Z,84.92
2023-02-23T12:43:24.801Z,84.31
2023-02-23T12:44:24.515Z,84.51
2023-02-23T12:45:24.280Z,83.90
2023-02-23T12:46:24.722Z,82.78
2023-02-23T12:47:24.283Z,82.78
2023-02-23T12:48:24.548Z,83.70
2023-02-23T12:49:45.158Z,83.29
2023-02-23T12:50:24.585Z,82.27
2023-02-23T12:51:25.842Z,82.41
2023-02-23T12:52:25.678Z,82.92